createdAt,value
2023-04-22T00:01:27.217Z,32.30
2023-04-22T00:03:55.350Z,33.70
2023-04-22T00:06:23.372Z,32.80
2023-04-22T00:08:51.295Z,47.20
2023-04-22T00:11:19.143Z,41.50
2023-04-22T00:13:47.006Z,35.10
2023-04-22T00:16:14.984Z,35.00
2023-04-22T00:18:43.199Z,36.70
2023-04-22T00:21:11.457Z,31.90
2023-04-22T00:23:39.403Z,37.40
2023-04-22T00:26:07.250Z,43.60
2023-04-22T00:28:35.075Z,44.10
2023-04-22T00:31:04.825Z,53.30
2023-04-22T00:33:32.945Z,45.00
2023-04-22T00:36:00.957Z,32.20
2023-04-22T00:38:28.915Z,26.30
2023-04-22T00:40:58.050Z,30.10
2023-04-22T00:43:25.908Z,27.80
2023-04-22T00:45:53.908Z,29.10
2023-04-22T00:48:22.683Z,25.50
2023-04-22T00:50:50.646Z,30.10
2023-04-22T00:53:18.506Z,25.30
2023-04-22T00:55:46.628Z,22.20
2023-04-22T00:58:14.825Z,23.90
2023-04-22T01:00:43.319Z,25.30
2023-04-22T01:03:12.504Z,27.40
2023-04-22T01:05:41.631Z,24.00
2023-04-22T01:08:09.613Z,23.00
2023-04-22T01:10:39.052Z,31.10
2023-04-22T01:13:06.990Z,23.80
2023-04-22T01:15:35.252Z,24.90
2023-04-22T01:18:03.659Z,24.30
2023-04-22T01:20:31.936Z,24.70
2023-04-22T01:23:04.282Z,25.80
2023-04-22T01:25:32.257Z,22.70
2023-04-22T01:28:00.333Z,22.70
2023-04-22T01:30:28.522Z,21.50
2023-04-22T01:32:56.586Z,23.70
2023-04-22T01:35:25.205Z,24.20
2023-04-22T01:37:53.329Z,25.80
2023-04-22T01:40:23.024Z,24.50
2023-04-22T01:42:51.588Z,25.50
2023-04-22T01:45:19.890Z,26.10
2023-04-22T01:47:47.877Z,26.80
2023-04-22T01:50:15.766Z,30.10
2023-04-22T01:52:43.676Z,33.30
2023-04-22T01:55:11.677Z,29.90
2023-04-22T01:57:39.568Z,29.30
2023-04-22T02:00:09.466Z,32.10
2023-04-22T02:02:47.918Z,25.10
2023-04-22T02:05:16.268Z,27.80
2023-04-22T02:07:46.459Z,24.30
2023-04-22T02:10:16.167Z,24.00
2023-04-22T02:12:44.288Z,24.80
2023-04-22T02:15:12.334Z,21.80
2023-04-22T02:17:43.583Z,23.30
2023-04-22T02:20:13.689Z,21.00
2023-04-22T02:22:43.666Z,23.10
2023-04-22T02:25:12.355Z,26.10
2023-04-22T02:27:40.498Z,27.00
2023-04-22T02:30:09.779Z,27.00
2023-04-22T02:32:38.940Z,26.80
2023-04-22T02:35:07.572Z,23.80
2023-04-22T02:37:35.902Z,27.40
2023-04-22T02:40:05.570Z,23.40
2023-04-22T02:42:33.552Z,24.40
2023-04-22T02:45:02.409Z,25.80
2023-04-22T02:47:30.423Z,29.10
2023-04-22T02:49:58.339Z,22.20
2023-04-22T02:52:26.392Z,23.10
2023-04-22T02:54:54.239Z,23.70
2023-04-22T02:57:22.328Z,21.30
2023-04-22T02:59:50.340Z,19.70
2023-04-22T03:02:19.305Z,24.90
2023-04-22T03:04:58.943Z,26.30
2023-04-22T03:07:27.023Z,21.90
2023-04-22T03:09:56.063Z,23.70
2023-04-22T03:12:25.590Z,22.10
2023-04-22T03:14:53.563Z,22.90
2023-04-22T03:17:22.703Z,21.10
2023-04-22T03:19:51.193Z,21.90
2023-04-22T03:24:50.248Z,22.40
2023-04-22T03:27:18.266Z,23.30
2023-04-22T03:29:46.473Z,24.80
2023-04-22T03:32:14.574Z,24.30
2023-04-22T03:34:43.449Z,22.80
2023-04-22T03:37:12.220Z,20.20
2023-04-22T03:39:40.927Z,23.30
2023-04-22T03:42:11.216Z,27.60
2023-04-22T03:44:42.106Z,22.60
2023-04-22T03:47:10.763Z,19.10
2023-04-22T03:49:45.347Z,22.10
2023-04-22T03:52:13.399Z,24.30
2023-04-22T03:54:45.588Z,19.00
2023-04-22T03:57:14.186Z,22.00
2023-04-22T03:59:42.714Z,25.00
2023-04-22T04:02:11.939Z,21.20
2023-04-22T04:04:40.334Z,22.40
2023-04-22T04:07:08.964Z,22.30
2023-04-22T04:09:37.008Z,19.20
2023-04-22T04:12:05.321Z,19.70
2023-04-22T04:14:36.435Z,22.70
2023-04-22T04:17:04.349Z,25.30
2023-04-22T04:19:34.765Z,22.60
2023-04-22T04:22:03.572Z,23.70
2023-04-22T04:24:36.765Z,22.00
2023-04-22T04:27:09.970Z,21.70
2023-04-22T04:29:43.246Z,23.90
2023-04-22T04:32:18.408Z,23.00
2023-04-22T04:34:46.561Z,24.50
2023-04-22T04:37:16.889Z,21.90
2023-04-22T04:40:01.780Z,23.60
2023-04-22T04:42:39.891Z,21.40
2023-04-22T04:45:11.730Z,22.90
2023-04-22T04:47:39.834Z,23.10
2023-04-22T04:50:14.613Z,26.80
2023-04-22T04:52:52.999Z,25.60
2023-04-22T04:55:35.323Z,26.70
2023-04-22T04:58:06.570Z,20.90
2023-04-22T05:00:34.481Z,22.00
2023-04-22T05:03:02.951Z,22.70
2023-04-22T05:05:31.895Z,19.60
2023-04-22T05:08:00.806Z,21.40
2023-04-22T05:10:29.259Z,19.30
2023-04-22T05:12:57.670Z,20.80
2023-04-22T05:15:26.055Z,19.10
2023-04-22T05:17:54.398Z,20.90
2023-04-22T05:20:22.721Z,16.80
2023-04-22T05:22:50.824Z,18.40
2023-04-22T05:25:19.280Z,26.80
2023-04-22T05:27:54.548Z,20.30
2023-04-22T05:30:22.621Z,20.20
2023-04-22T05:32:50.659Z,16.90
2023-04-22T05:35:18.703Z,22.50
2023-04-22T05:37:46.634Z,19.30
2023-04-22T05:40:14.500Z,18.10
2023-04-22T05:42:42.384Z,22.00
2023-04-22T05:45:10.764Z,25.20
2023-04-22T05:47:39.311Z,22.20
2023-04-22T05:50:07.842Z,21.20
2023-04-22T05:52:45.650Z,21.50
2023-04-22T05:55:16.090Z,21.30
2023-04-22T05:57:44.374Z,22.20
2023-04-22T06:00:23.044Z,16.90
2023-04-22T06:02:59.128Z,18.70
2023-04-22T06:05:27.959Z,19.60
2023-04-22T06:07:58.726Z,16.30
2023-04-22T06:10:26.652Z,18.80
2023-04-22T06:12:55.091Z,17.20
2023-04-22T06:15:23.329Z,20.00
2023-04-22T06:17:51.602Z,17.70
2023-04-22T06:20:20.075Z,19.70
2023-04-22T06:22:48.281Z,19.20
2023-04-22T06:25:16.356Z,23.40
2023-04-22T06:27:44.444Z,20.50
2023-04-22T06:30:13.146Z,20.60
2023-04-22T06:32:41.380Z,20.40
2023-04-22T06:35:09.623Z,19.50
2023-04-22T06:37:37.656Z,23.90
2023-04-22T06:40:08.090Z,22.20
2023-04-22T06:42:48.131Z,28.10
2023-04-22T06:45:39.330Z,25.00
2023-04-22T06:48:30.541Z,24.70
2023-04-22T06:51:18.850Z,23.10
2023-04-22T06:53:46.928Z,19.40
2023-04-22T06:56:19.896Z,15.10
2023-04-22T06:58:47.887Z,17.30
2023-04-22T07:01:17.373Z,19.20
2023-04-22T07:03:45.684Z,12.00
2023-04-22T07:06:15.437Z,11.90
2023-04-22T07:08:43.641Z,11.90
2023-04-22T07:11:13.199Z,14.30
2023-04-22T07:14:01.225Z,12.40
2023-04-22T07:16:32.332Z,14.10
2023-04-22T07:19:00.678Z,12.00
2023-04-22T07:21:28.870Z,25.60
2023-04-22T07:23:57.013Z,13.80
2023-04-22T07:26:25.799Z,13.40
2023-04-22T07:28:54.051Z,13.10
2023-04-22T07:31:22.130Z,13.10
2023-04-22T07:33:50.197Z,17.10
2023-04-22T07:36:18.162Z,19.70
2023-04-22T07:38:46.145Z,16.70
2023-04-22T07:41:14.201Z,10.50
2023-04-22T07:43:42.247Z,10.30
2023-04-22T07:46:10.383Z,11.30
2023-04-22T07:48:38.345Z,9.80
2023-04-22T07:51:06.278Z,11.50
2023-04-22T07:53:34.227Z,18.20
2023-04-22T07:56:03.025Z,14.10
2023-04-22T07:58:30.900Z,16.60
2023-04-22T08:00:58.972Z,14.40
2023-04-22T08:03:27.462Z,12.00
2023-04-22T08:05:58.343Z,11.00
2023-04-22T08:08:26.567Z,16.80
2023-04-22T08:10:54.565Z,12.70
2023-04-22T08:13:22.499Z,18.00
2023-04-22T08:15:50.553Z,13.50
2023-04-22T08:18:18.505Z,13.40
2023-04-22T08:20:47.885Z,13.50
2023-04-22T08:23:16.075Z,9.80
2023-04-22T08:25:48.401Z,10.50
2023-04-22T08:28:16.408Z,11.20
2023-04-22T08:30:49.138Z,11.60
2023-04-22T08:33:17.427Z,15.00
2023-04-22T08:35:45.484Z,12.20
2023-04-22T08:38:13.494Z,12.40
2023-04-22T08:40:42.553Z,13.10
2023-04-22T08:43:11.550Z,13.90
2023-04-22T08:45:39.969Z,9.30
2023-04-22T08:48:09.454Z,14.40
2023-04-22T08:50:39.763Z,12.50
2023-04-22T08:55:36.503Z,14.20
2023-04-22T08:58:06.303Z,13.90
2023-04-22T09:00:34.750Z,11.80
2023-04-22T09:03:03.757Z,11.90
2023-04-22T09:05:37.882Z,12.20
2023-04-22T09:08:08.047Z,11.70
2023-04-22T09:10:39.957Z,16.50
2023-04-22T09:13:08.005Z,12.00
2023-04-22T09:15:36.630Z,10.50
2023-04-22T09:18:05.650Z,9.40
2023-04-22T09:20:36.793Z,10.10
2023-04-22T09:23:05.359Z,9.90
2023-04-22T09:25:35.900Z,8.00
2023-04-22T09:28:04.176Z,8.60
2023-04-22T09:30:38.063Z,10.00
2023-04-22T09:33:07.860Z,10.20
2023-04-22T09:35:38.188Z,10.90
2023-04-22T09:38:08.788Z,10.60
2023-04-22T09:40:41.338Z,10.30
2023-04-22T09:43:10.757Z,10.30
2023-04-22T09:45:41.535Z,10.40
2023-04-22T09:48:15.190Z,9.20
2023-04-22T09:50:49.238Z,9.80
2023-04-22T09:53:18.965Z,9.20
2023-04-22T09:55:53.404Z,8.50
2023-04-22T09:58:24.095Z,12.10
2023-04-22T10:00:56.768Z,9.80
2023-04-22T10:03:25.028Z,11.00
2023-04-22T10:05:53.047Z,12.30
2023-04-22T10:08:21.253Z,9.10
2023-04-22T10:10:49.242Z,12.20
2023-04-22T10:13:17.280Z,10.50
2023-04-22T10:15:57.319Z,10.60
2023-04-22T10:18:27.405Z,10.00
2023-04-22T10:20:57.740Z,10.60
2023-04-22T10:23:25.906Z,11.40
2023-04-22T10:25:55.340Z,12.10
2023-04-22T10:28:27.783Z,8.70
2023-04-22T10:30:56.103Z,9.10
2023-04-22T10:33:24.133Z,8.80
2023-04-22T10:36:14.740Z,13.00
2023-04-22T10:39:02.709Z,8.70
2023-04-22T10:41:33.485Z,8.20
2023-04-22T10:44:08.516Z,9.70
2023-04-22T10:46:40.333Z,9.20
2023-04-22T10:49:11.286Z,10.50
2023-04-22T10:51:48.410Z,10.40
2023-04-22T10:54:38.932Z,8.80
2023-04-22T10:57:22.750Z,8.10
2023-04-22T10:59:56.341Z,7.80
2023-04-22T11:02:24.832Z,9.00
2023-04-22T11:05:27.202Z,7.20
2023-04-22T11:08:01.878Z,9.10
2023-04-22T11:10:43.059Z,7.90
2023-04-22T11:13:15.599Z,7.00
2023-04-22T11:15:46.470Z,10.60
2023-04-22T11:18:19.461Z,8.70
2023-04-22T11:20:49.517Z,8.90
2023-04-22T11:23:20.098Z,10.70
2023-04-22T11:25:48.130Z,10.50
2023-04-22T11:28:16.238Z,8.90
2023-04-22T11:30:44.266Z,10.90
2023-04-22T11:33:15.500Z,8.70
2023-04-22T11:35:43.632Z,8.60
2023-04-22T11:38:11.653Z,9.10
2023-04-22T11:40:45.703Z,9.50
2023-04-22T11:43:14.639Z,10.80
2023-04-22T11:45:42.834Z,11.50
2023-04-22T11:48:11.863Z,8.70
2023-04-22T11:50:43.808Z,11.00
2023-04-22T11:53:19.236Z,8.50
2023-04-22T11:55:54.023Z,8.60
2023-04-22T11:58:28.208Z,9.90
2023-04-22T12:01:00.540Z,8.80
2023-04-22T12:03:30.092Z,8.40
2023-04-22T12:06:02.170Z,9.50
2023-04-22T12:08:39.902Z,7.60
2023-04-22T12:11:10.644Z,8.70
2023-04-22T12:13:38.661Z,7.80
2023-04-22T12:16:12.811Z,10.20
2023-04-22T12:18:52.815Z,8.70
2023-04-22T12:21:23.856Z,11.10
2023-04-22T12:23:52.590Z,8.10
2023-04-22T12:26:25.422Z,11.80
2023-04-22T12:28:56.342Z,7.90
2023-04-22T12:31:25.378Z,9.40
2023-04-22T12:33:54.160Z,10.00
2023-04-22T12:36:23.625Z,10.30
2023-04-22T12:38:54.302Z,8.20
2023-04-22T12:41:23.781Z,8.10
2023-04-22T12:43:52.944Z,10.90
2023-04-22T12:46:21.227Z,11.80
2023-04-22T12:48:49.229Z,8.50
2023-04-22T12:51:20.340Z,8.50
2023-04-22T12:53:48.414Z,9.90
2023-04-22T12:56:16.454Z,9.60
2023-04-22T12:58:44.449Z,8.70
2023-04-22T13:01:12.308Z,11.90
2023-04-22T13:03:40.307Z,9.50
2023-04-22T13:06:08.562Z,9.70
2023-04-22T13:08:36.730Z,8.30
2023-04-22T13:11:07.477Z,8.40
2023-04-22T13:13:35.800Z,8.40
2023-04-22T13:16:03.813Z,9.10
2023-04-22T13:18:31.913Z,8.50
2023-04-22T13:21:00.489Z,7.20
2023-04-22T13:23:29.163Z,7.70
2023-04-22T13:25:57.360Z,10.60
2023-04-22T13:28:25.872Z,7.90
2023-04-22T13:30:55.618Z,8.60
2023-04-22T13:33:23.724Z,8.80
2023-04-22T13:35:51.597Z,9.80
2023-04-22T13:38:19.762Z,10.00
2023-04-22T13:40:48.152Z,8.90
2023-04-22T13:43:16.070Z,10.30
2023-04-22T13:45:43.993Z,9.40
2023-04-22T13:48:33.674Z,16.60
2023-04-22T13:51:03.616Z,11.50
2023-04-22T13:53:34.075Z,8.10
2023-04-22T13:56:02.609Z,12.80
2023-04-22T13:58:30.632Z,7.40
2023-04-22T14:00:58.767Z,7.60
2023-04-22T14:03:31.584Z,8.80
2023-04-22T14:06:04.104Z,10.50
2023-04-22T14:08:32.202Z,9.60
2023-04-22T14:11:03.464Z,7.80
2023-04-22T14:13:33.076Z,9.60
2023-04-22T14:16:03.380Z,11.50
2023-04-22T14:18:31.443Z,9.10
2023-04-22T14:21:07.583Z,9.50
2023-04-22T14:23:40.778Z,9.70
2023-04-22T14:26:11.201Z,8.70
2023-04-22T14:28:45.569Z,10.60
2023-04-22T14:31:15.480Z,11.80
2023-04-22T14:33:43.428Z,8.30
2023-04-22T14:36:11.510Z,10.10
2023-04-22T14:38:39.487Z,11.40
2023-04-22T14:41:07.464Z,9.20
2023-04-22T14:43:38.202Z,8.50
2023-04-22T14:46:06.271Z,7.00
2023-04-22T14:48:35.458Z,11.40
2023-04-22T14:51:03.774Z,11.00
2023-04-22T14:53:37.654Z,9.00
2023-04-22T14:56:05.627Z,10.10
2023-04-22T14:58:33.527Z,10.10
2023-04-22T15:01:01.598Z,8.30
2023-04-22T15:03:29.961Z,8.60
2023-04-22T15:05:58.981Z,11.50
2023-04-22T15:08:27.051Z,6.80
2023-04-22T15:10:55.714Z,9.20
2023-04-22T15:13:23.717Z,8.30
2023-04-22T15:15:51.996Z,9.10
2023-04-22T15:18:19.984Z,9.00
2023-04-22T15:20:47.998Z,8.00
2023-04-22T15:23:16.280Z,9.60
2023-04-22T15:25:44.636Z,10.20
2023-04-22T15:28:12.658Z,8.70
2023-04-22T15:30:40.827Z,9.50
2023-04-22T15:33:08.703Z,10.60
2023-04-22T15:35:36.923Z,7.50
2023-04-22T15:38:05.931Z,10.90
2023-04-22T15:40:33.848Z,7.90
2023-04-22T15:43:01.830Z,10.10
2023-04-22T15:45:29.792Z,10.80
2023-04-22T15:47:58.474Z,9.30
2023-04-22T15:50:26.535Z,9.60
2023-04-22T15:52:54.613Z,9.40
2023-04-22T15:55:22.979Z,7.50
2023-04-22T15:57:51.585Z,11.40
2023-04-22T16:00:19.863Z,8.90
2023-04-22T16:02:59.020Z,8.30
2023-04-22T16:05:28.870Z,9.10
2023-04-22T16:07:56.936Z,7.40
2023-04-22T16:10:26.328Z,12.60
2023-04-22T16:12:54.417Z,7.60
2023-04-22T16:15:24.298Z,5.90
2023-04-22T16:17:52.794Z,7.20
2023-04-22T16:20:21.041Z,8.20
2023-04-22T16:22:49.078Z,11.30
2023-04-22T16:25:17.204Z,8.50
2023-04-22T16:27:45.236Z,9.90
2023-04-22T16:30:15.647Z,8.90
2023-04-22T16:32:44.155Z,9.10
2023-04-22T16:35:12.132Z,9.90
2023-04-22T16:37:40.344Z,7.30
2023-04-22T16:40:08.839Z,8.60
2023-04-22T16:42:37.066Z,15.90
2023-04-22T16:45:05.811Z,7.80
2023-04-22T16:47:33.870Z,10.90
2023-04-22T16:50:01.921Z,14.00
2023-04-22T16:52:29.970Z,14.50
2023-04-22T16:54:58.119Z,9.70
2023-04-22T16:57:26.344Z,9.10
2023-04-22T16:59:54.216Z,11.70
2023-04-22T17:02:22.440Z,9.60
2023-04-22T17:04:51.154Z,13.30
2023-04-22T17:07:19.155Z,12.20
2023-04-22T17:09:48.812Z,17.20
2023-04-22T17:12:17.221Z,18.60
2023-04-22T17:14:45.487Z,12.30
2023-04-22T17:17:13.830Z,16.20
2023-04-22T17:19:43.851Z,13.90
2023-04-22T17:22:12.154Z,19.40
2023-04-22T17:24:40.827Z,13.00
2023-04-22T17:27:09.202Z,15.70
2023-04-22T17:29:39.302Z,15.70
2023-04-22T17:32:07.898Z,16.80
2023-04-22T17:34:35.974Z,19.90
2023-04-22T17:37:03.885Z,23.70
2023-04-22T17:39:31.934Z,23.30
2023-04-22T17:42:00.674Z,15.90
2023-04-22T17:44:28.570Z,16.00
2023-04-22T17:46:56.550Z,19.40
2023-04-22T17:49:27.661Z,28.20
2023-04-22T17:51:56.039Z,32.50
2023-04-22T17:54:24.561Z,30.80
2023-04-22T17:56:52.503Z,29.20
2023-04-22T17:59:20.861Z,29.70
2023-04-22T18:01:48.993Z,26.80
2023-04-22T18:04:17.235Z,23.40
2023-04-22T18:06:45.292Z,31.10
2023-04-22T18:09:13.299Z,33.20
2023-04-22T18:11:41.348Z,29.80
2023-04-22T18:14:11.022Z,35.20
2023-04-22T18:16:38.952Z,30.80
2023-04-22T18:19:07.045Z,28.90
2023-04-22T18:21:36.911Z,30.60
2023-04-22T18:24:08.481Z,30.10
2023-04-22T18:26:36.803Z,26.80
2023-04-22T18:29:05.986Z,31.20
2023-04-22T18:31:33.903Z,30.60
2023-04-22T18:34:01.830Z,31.60
2023-04-22T18:36:29.818Z,30.60
2023-04-22T18:38:58.076Z,37.10
2023-04-22T18:41:26.041Z,31.30
2023-04-22T18:43:53.988Z,40.20
2023-04-22T18:46:24.460Z,38.90
2023-04-22T18:48:52.463Z,43.50
2023-04-22T18:51:20.801Z,41.30
2023-04-22T18:53:49.362Z,33.90
2023-04-22T18:56:17.295Z,41.70
2023-04-22T18:58:45.388Z,35.20
2023-04-22T19:01:14.451Z,31.10
2023-04-22T19:03:43.016Z,43.40
2023-04-22T19:06:12.531Z,46.60
2023-04-22T19:08:40.524Z,52.50
2023-04-22T19:11:08.553Z,45.80
2023-04-22T19:13:37.694Z,65.40
2023-04-22T19:16:05.847Z,71.20
2023-04-22T19:18:33.834Z,59.30
2023-04-22T19:21:02.688Z,70.00
2023-04-22T19:23:30.880Z,63.40
2023-04-22T19:25:58.943Z,61.10
2023-04-22T19:28:27.021Z,58.50
2023-04-22T19:30:55.518Z,69.20
2023-04-22T19:33:23.522Z,72.10
2023-04-22T19:35:51.442Z,72.40
2023-04-22T19:38:21.391Z,73.90
2023-04-22T19:40:49.890Z,62.30
2023-04-22T19:43:19.183Z,54.50
2023-04-22T19:45:47.479Z,56.20
2023-04-22T19:48:15.672Z,46.80
2023-04-22T19:50:44.862Z,45.40
2023-04-22T19:53:13.508Z,42.70
2023-04-22T19:55:46.908Z,49.30
2023-04-22T19:58:15.000Z,43.30
2023-04-22T20:00:43.976Z,46.10
2023-04-22T20:03:14.457Z,48.80
2023-04-22T20:05:44.288Z,41.40
2023-04-22T20:08:14.852Z,47.40
2023-04-22T20:10:45.330Z,42.60
2023-04-22T20:13:13.595Z,41.80
2023-04-22T20:15:41.865Z,41.20
2023-04-22T20:18:10.164Z,43.40
2023-04-22T20:20:40.218Z,45.20
2023-04-22T20:23:12.911Z,53.80
2023-04-22T20:25:47.171Z,47.40
2023-04-22T20:28:15.487Z,49.60
2023-04-22T20:30:43.596Z,51.10
2023-04-22T20:33:15.164Z,51.00
2023-04-22T20:35:49.503Z,49.70
2023-04-22T20:38:19.495Z,54.10
2023-04-22T20:40:47.824Z,49.80
2023-04-22T20:43:15.799Z,50.40
2023-04-22T20:45:43.719Z,47.90
2023-04-22T20:48:11.645Z,46.00
2023-04-22T20:50:39.628Z,45.40
2023-04-22T20:53:07.525Z,96.00
2023-04-22T20:55:37.208Z,66.80
2023-04-22T20:58:05.446Z,48.80
2023-04-22T21:00:34.239Z,47.80
2023-04-22T21:03:04.443Z,45.20
2023-04-22T21:05:33.447Z,49.50
2023-04-22T21:08:01.913Z,45.90
2023-04-22T21:10:30.869Z,46.40
2023-04-22T21:12:59.418Z,53.30
2023-04-22T21:15:27.665Z,44.80
2023-04-22T21:17:56.661Z,42.60
2023-04-22T21:20:27.169Z,45.30
2023-04-22T21:22:57.768Z,44.30
2023-04-22T21:27:54.447Z,46.30
2023-04-22T21:30:22.829Z,41.30
2023-04-22T21:32:50.832Z,44.30
2023-04-22T21:35:19.020Z,40.90
2023-04-22T21:37:47.016Z,37.50
2023-04-22T21:40:14.861Z,40.60
2023-04-22T21:42:42.817Z,38.00
2023-04-22T21:45:11.393Z,38.50
2023-04-22T21:47:39.432Z,36.80
2023-04-22T21:50:07.736Z,38.10
2023-04-22T21:52:35.826Z,40.60
2023-04-22T21:55:04.595Z,41.20
2023-04-22T21:57:32.589Z,33.30
2023-04-22T22:00:00.601Z,36.20
2023-04-22T22:02:28.817Z,41.90
2023-04-22T22:04:56.936Z,39.80
2023-04-22T22:07:27.033Z,38.20
2023-04-22T22:09:55.071Z,36.40
2023-04-22T22:12:23.456Z,35.60
2023-04-22T22:14:51.325Z,36.60
2023-04-22T22:17:19.790Z,37.80
2023-04-22T22:19:48.790Z,34.90
2023-04-22T22:22:16.793Z,34.40
2023-04-22T22:24:45.654Z,35.30
2023-04-22T22:27:13.636Z,33.20
2023-04-22T22:29:41.541Z,34.90
2023-04-22T22:32:09.486Z,31.80
2023-04-22T22:34:37.346Z,33.30
2023-04-22T22:39:33.219Z,28.40
2023-04-22T22:42:01.840Z,34.10
2023-04-22T22:44:29.816Z,33.00
2023-04-22T22:46:57.770Z,30.60
2023-04-22T22:49:25.735Z,32.10
2023-04-22T22:51:53.655Z,36.00
2023-04-22T22:54:21.919Z,32.30
2023-04-22T22:56:49.867Z,34.70
2023-04-22T22:59:17.757Z,31.90
2023-04-22T23:01:46.046Z,32.50
2023-04-22T23:04:15.688Z,34.40
2023-04-22T23:06:43.915Z,33.10
2023-04-22T23:09:12.043Z,35.00
2023-04-22T23:11:39.980Z,33.00
2023-04-22T23:14:09.658Z,38.50
2023-04-22T23:16:38.239Z,35.50
2023-04-22T23:19:06.732Z,37.10
2023-04-22T23:21:35.085Z,33.70
2023-04-22T23:24:03.953Z,33.40
2023-04-22T23:26:32.160Z,32.70
2023-04-22T23:29:00.388Z,31.80
2023-04-22T23:31:30.500Z,30.10
2023-04-22T23:34:05.106Z,32.90
2023-04-22T23:36:37.374Z,33.30
2023-04-22T23:39:08.096Z,29.10
2023-04-22T23:44:04.418Z,32.40
2023-04-22T23:46:32.352Z,32.50
2023-04-22T23:49:01.542Z,31.90
2023-04-22T23:51:29.824Z,30.60
2023-04-22T23:53:57.733Z,31.10
2023-04-22T23:56:26.562Z,30.20
2023-04-22T23:58:54.770Z,30.80
